sensor_id;sensor_type;location;lat;lon;timestamp;temperature;humidity
22908;DHT22;11620;50.050;8.690;2022-07-17T00:00:46;21.00;96.60
22908;DHT22;11620;50.050;8.690;2022-07-17T00:03:32;20.90;96.30
22908;DHT22;11620;50.050;8.690;2022-07-17T00:06:19;20.80;96.30
22908;DHT22;11620;50.050;8.690;2022-07-17T00:09:05;20.80;96.30
22908;DHT22;11620;50.050;8.690;2022-07-17T00:11:52;20.80;96.60
22908;DHT22;11620;50.050;8.690;2022-07-17T00:14:38;20.70;96.30
22908;DHT22;11620;50.050;8.690;2022-07-17T00:17:25;20.70;95.90
22908;DHT22;11620;50.050;8.690;2022-07-17T00:20:11;20.70;96.60
22908;DHT22;11620;50.050;8.690;2022-07-17T00:22:58;20.60;96.70
22908;DHT22;11620;50.050;8.690;2022-07-17T00:25:44;20.60;96.40
22908;DHT22;11620;50.050;8.690;2022-07-17T00:28:31;20.60;96.70
22908;DHT22;11620;50.050;8.690;2022-07-17T00:31:17;20.60;97.30
22908;DHT22;11620;50.050;8.690;2022-07-17T00:34:04;20.50;96.90
22908;DHT22;11620;50.050;8.690;2022-07-17T00:36:50;20.40;96.80
22908;DHT22;11620;50.050;8.690;2022-07-17T00:39:36;20.40;97.00
22908;DHT22;11620;50.050;8.690;2022-07-17T00:42:23;20.40;97.10
22908;DHT22;11620;50.050;8.690;2022-07-17T00:45:11;20.30;97.10
22908;DHT22;11620;50.050;8.690;2022-07-17T00:48:04;20.30;96.90
22908;DHT22;11620;50.050;8.690;2022-07-17T00:50:51;20.30;97.10
22908;DHT22;11620;50.050;8.690;2022-07-17T00:53:40;20.20;97.20
22908;DHT22;11620;50.050;8.690;2022-07-17T00:56:28;20.10;97.70
22908;DHT22;11620;50.050;8.690;2022-07-17T00:59:15;20.10;97.60
22908;DHT22;11620;50.050;8.690;2022-07-17T01:02:06;20.10;97.40
22908;DHT22;11620;50.050;8.690;2022-07-17T01:04:53;20.00;97.40
22908;DHT22;11620;50.050;8.690;2022-07-17T01:07:39;19.90;97.40
22908;DHT22;11620;50.050;8.690;2022-07-17T01:10:26;19.90;97.30
22908;DHT22;11620;50.050;8.690;2022-07-17T01:13:12;19.90;97.50
22908;DHT22;11620;50.050;8.690;2022-07-17T01:15:59;19.90;97.60
22908;DHT22;11620;50.050;8.690;2022-07-17T01:18:45;19.80;97.10
22908;DHT22;11620;50.050;8.690;2022-07-17T01:21:43;19.80;97.70
22908;DHT22;11620;50.050;8.690;2022-07-17T01:24:29;19.80;98.00
22908;DHT22;11620;50.050;8.690;2022-07-17T01:27:16;19.70;98.50
22908;DHT22;11620;50.050;8.690;2022-07-17T01:30:03;19.60;98.00
22908;DHT22;11620;50.050;8.690;2022-07-17T01:32:50;19.60;98.30
22908;DHT22;11620;50.050;8.690;2022-07-17T01:35:37;19.60;98.30
22908;DHT22;11620;50.050;8.690;2022-07-17T01:38:23;19.60;98.50
22908;DHT22;11620;50.050;8.690;2022-07-17T01:41:09;19.50;98.20
22908;DHT22;11620;50.050;8.690;2022-07-17T01:43:56;19.50;98.40
22908;DHT22;11620;50.050;8.690;2022-07-17T01:46:42;19.40;98.50
22908;DHT22;11620;50.050;8.690;2022-07-17T01:49:29;19.40;98.60
22908;DHT22;11620;50.050;8.690;2022-07-17T01:52:15;19.40;98.50
22908;DHT22;11620;50.050;8.690;2022-07-17T01:55:02;19.30;98.30
22908;DHT22;11620;50.050;8.690;2022-07-17T01:57:49;19.30;98.60
22908;DHT22;11620;50.050;8.690;2022-07-17T02:00:36;19.30;98.80
22908;DHT22;11620;50.050;8.690;2022-07-17T02:03:23;19.10;98.20
22908;DHT22;11620;50.050;8.690;2022-07-17T02:06:09;19.10;98.40
22908;DHT22;11620;50.050;8.690;2022-07-17T02:08:56;19.10;98.10
22908;DHT22;11620;50.050;8.690;2022-07-17T02:11:42;19.00;98.10
22908;DHT22;11620;50.050;8.690;2022-07-17T02:14:29;19.00;98.40
22908;DHT22;11620;50.050;8.690;2022-07-17T02:17:16;18.90;98.70
22908;DHT22;11620;50.050;8.690;2022-07-17T02:20:03;18.90;98.60
22908;DHT22;11620;50.050;8.690;2022-07-17T02:22:50;18.80;98.70
22908;DHT22;11620;50.050;8.690;2022-07-17T02:25:37;18.80;98.90
22908;DHT22;11620;50.050;8.690;2022-07-17T02:28:23;18.80;98.70
22908;DHT22;11620;50.050;8.690;2022-07-17T02:31:10;18.80;98.80
22908;DHT22;11620;50.050;8.690;2022-07-17T02:33:56;18.80;99.20
22908;DHT22;11620;50.050;8.690;2022-07-17T02:36:43;18.70;99.10
22908;DHT22;11620;50.050;8.690;2022-07-17T02:39:29;18.70;98.90
22908;DHT22;11620;50.050;8.690;2022-07-17T02:42:15;18.70;99.50
22908;DHT22;11620;50.050;8.690;2022-07-17T02:45:02;18.60;98.80
22908;DHT22;11620;50.050;8.690;2022-07-17T02:47:48;18.60;99.10
22908;DHT22;11620;50.050;8.690;2022-07-17T02:50:35;18.50;98.80
22908;DHT22;11620;50.050;8.690;2022-07-17T02:53:21;18.50;99.10
22908;DHT22;11620;50.050;8.690;2022-07-17T02:56:07;18.50;98.60
22908;DHT22;11620;50.050;8.690;2022-07-17T02:58:54;18.40;98.90
22908;DHT22;11620;50.050;8.690;2022-07-17T03:01:40;18.40;99.20
22908;DHT22;11620;50.050;8.690;2022-07-17T03:04:26;18.40;99.10
22908;DHT22;11620;50.050;8.690;2022-07-17T03:07:13;18.30;99.70
22908;DHT22;11620;50.050;8.690;2022-07-17T03:09:59;18.30;99.20
22908;DHT22;11620;50.050;8.690;2022-07-17T03:12:45;18.20;99.20
22908;DHT22;11620;50.050;8.690;2022-07-17T03:15:32;18.20;99.80
22908;DHT22;11620;50.050;8.690;2022-07-17T03:18:18;18.20;99.50
22908;DHT22;11620;50.050;8.690;2022-07-17T03:21:05;18.10;99.70
22908;DHT22;11620;50.050;8.690;2022-07-17T03:23:51;18.10;99.90
22908;DHT22;11620;50.050;8.690;2022-07-17T03:26:37;18.10;99.90
22908;DHT22;11620;50.050;8.690;2022-07-17T03:29:24;18.10;99.90
22908;DHT22;11620;50.050;8.690;2022-07-17T03:32:10;18.10;99.60
22908;DHT22;11620;50.050;8.690;2022-07-17T03:34:57;18.00;99.90
22908;DHT22;11620;50.050;8.690;2022-07-17T03:37:43;18.00;99.90
22908;DHT22;11620;50.050;8.690;2022-07-17T03:40:30;18.00;99.90
22908;DHT22;11620;50.050;8.690;2022-07-17T03:43:16;17.90;99.90
22908;DHT22;11620;50.050;8.690;2022-07-17T03:46:03;17.90;99.90
22908;DHT22;11620;50.050;8.690;2022-07-17T03:48:49;17.90;99.70
22908;DHT22;11620;50.050;8.690;2022-07-17T03:51:36;17.80;99.90
22908;DHT22;11620;50.050;8.690;2022-07-17T03:54:22;17.80;99.80
22908;DHT22;11620;50.050;8.690;2022-07-17T03:57:08;17.70;99.90
22908;DHT22;11620;50.050;8.690;2022-07-17T03:59:55;17.60;99.80
22908;DHT22;11620;50.050;8.690;2022-07-17T04:02:41;17.60;99.90
22908;DHT22;11620;50.050;8.690;2022-07-17T04:05:27;17.50;99.80
22908;DHT22;11620;50.050;8.690;2022-07-17T04:08:14;17.40;99.90
22908;DHT22;11620;50.050;8.690;2022-07-17T04:11:01;17.40;99.90
22908;DHT22;11620;50.050;8.690;2022-07-17T04:13:48;17.40;99.90
22908;DHT22;11620;50.050;8.690;2022-07-17T04:16:34;17.40;99.90
22908;DHT22;11620;50.050;8.690;2022-07-17T04:19:20;17.40;99.90
22908;DHT22;11620;50.050;8.690;2022-07-17T04:22:07;17.40;99.90
22908;DHT22;11620;50.050;8.690;2022-07-17T04:24:53;17.40;99.90
22908;DHT22;11620;50.050;8.690;2022-07-17T04:27:39;17.40;99.90
22908;DHT22;11620;50.050;8.690;2022-07-17T04:30:26;17.40;99.90
22908;DHT22;11620;50.050;8.690;2022-07-17T04:33:12;17.40;99.90
22908;DHT22;11620;50.050;8.690;2022-07-17T04:35:59;17.40;99.90
22908;DHT22;11620;50.050;8.690;2022-07-17T04:38:45;17.40;99.90
22908;DHT22;11620;50.050;8.690;2022-07-17T04:41:31;17.40;99.90
22908;DHT22;11620;50.050;8.690;2022-07-17T04:44:18;17.30;99.90
22908;DHT22;11620;50.050;8.690;2022-07-17T04:47:04;17.30;99.90
22908;DHT22;11620;50.050;8.690;2022-07-17T04:49:51;17.30;99.90
22908;DHT22;11620;50.050;8.690;2022-07-17T04:52:37;17.30;99.90
22908;DHT22;11620;50.050;8.690;2022-07-17T04:55:23;17.40;99.90
22908;DHT22;11620;50.050;8.690;2022-07-17T04:58:10;17.30;99.90
22908;DHT22;11620;50.050;8.690;2022-07-17T05:00:56;17.40;99.90
22908;DHT22;11620;50.050;8.690;2022-07-17T05:03:42;17.40;99.90
22908;DHT22;11620;50.050;8.690;2022-07-17T05:06:29;17.40;99.90
22908;DHT22;11620;50.050;8.690;2022-07-17T05:09:15;17.40;99.90
22908;DHT22;11620;50.050;8.690;2022-07-17T05:12:01;17.40;99.90
22908;DHT22;11620;50.050;8.690;2022-07-17T05:14:48;17.30;99.90
22908;DHT22;11620;50.050;8.690;2022-07-17T05:17:34;17.40;99.90
22908;DHT22;11620;50.050;8.690;2022-07-17T05:20:21;17.30;99.90
22908;DHT22;11620;50.050;8.690;2022-07-17T05:23:07;17.40;99.90
22908;DHT22;11620;50.050;8.690;2022-07-17T05:25:53;17.40;99.90
22908;DHT22;11620;50.050;8.690;2022-07-17T05:28:40;17.40;99.90
22908;DHT22;11620;50.050;8.690;2022-07-17T05:31:26;17.40;99.90
22908;DHT22;11620;50.050;8.690;2022-07-17T05:34:13;17.50;99.90
22908;DHT22;11620;50.050;8.690;2022-07-17T05:36:59;17.60;99.90
22908;DHT22;11620;50.050;8.690;2022-07-17T05:39:45;17.70;99.90
22908;DHT22;11620;50.050;8.690;2022-07-17T05:42:32;17.70;99.90
22908;DHT22;11620;50.050;8.690;2022-07-17T05:45:18;17.80;99.90
22908;DHT22;11620;50.050;8.690;2022-07-17T05:48:06;17.90;99.90
22908;DHT22;11620;50.050;8.690;2022-07-17T05:50:53;17.90;99.90
22908;DHT22;11620;50.050;8.690;2022-07-17T05:53:39;17.90;99.90
22908;DHT22;11620;50.050;8.690;2022-07-17T05:56:26;18.00;99.90
22908;DHT22;11620;50.050;8.690;2022-07-17T05:59:12;18.10;99.90
22908;DHT22;11620;50.050;8.690;2022-07-17T06:01:58;18.10;99.90
22908;DHT22;11620;50.050;8.690;2022-07-17T06:04:45;18.20;99.90
22908;DHT22;11620;50.050;8.690;2022-07-17T06:07:31;18.20;99.90
22908;DHT22;11620;50.050;8.690;2022-07-17T06:10:18;18.30;99.90
22908;DHT22;11620;50.050;8.690;2022-07-17T06:13:05;18.40;99.90
22908;DHT22;11620;50.050;8.690;2022-07-17T06:15:51;18.40;99.90
22908;DHT22;11620;50.050;8.690;2022-07-17T06:18:37;18.60;99.90
22908;DHT22;11620;50.050;8.690;2022-07-17T06:21:24;18.80;99.90
22908;DHT22;11620;50.050;8.690;2022-07-17T06:24:10;19.10;99.90
22908;DHT22;11620;50.050;8.690;2022-07-17T06:26:56;19.40;99.90
22908;DHT22;11620;50.050;8.690;2022-07-17T06:29:43;19.60;99.90
22908;DHT22;11620;50.050;8.690;2022-07-17T06:32:29;19.80;99.90
22908;DHT22;11620;50.050;8.690;2022-07-17T06:35:15;20.10;99.90
22908;DHT22;11620;50.050;8.690;2022-07-17T06:38:02;20.40;99.90
22908;DHT22;11620;50.050;8.690;2022-07-17T06:40:48;20.70;99.00
22908;DHT22;11620;50.050;8.690;2022-07-17T06:43:35;21.00;99.00
22908;DHT22;11620;50.050;8.690;2022-07-17T06:46:22;21.20;98.80
22908;DHT22;11620;50.050;8.690;2022-07-17T06:49:08;21.50;98.90
22908;DHT22;11620;50.050;8.690;2022-07-17T06:51:54;21.80;98.60
22908;DHT22;11620;50.050;8.690;2022-07-17T06:54:41;22.00;98.00
22908;DHT22;11620;50.050;8.690;2022-07-17T06:57:30;22.20;97.30
22908;DHT22;11620;50.050;8.690;2022-07-17T07:00:16;22.30;97.70
22908;DHT22;11620;50.050;8.690;2022-07-17T07:03:04;22.60;96.90
22908;DHT22;11620;50.050;8.690;2022-07-17T07:05:50;22.70;96.50
22908;DHT22;11620;50.050;8.690;2022-07-17T07:08:37;22.80;96.00
22908;DHT22;11620;50.050;8.690;2022-07-17T07:11:23;22.90;96.80
22908;DHT22;11620;50.050;8.690;2022-07-17T07:14:10;23.10;97.00
22908;DHT22;11620;50.050;8.690;2022-07-17T07:16:56;23.30;97.00
22908;DHT22;11620;50.050;8.690;2022-07-17T07:19:43;23.50;96.30
22908;DHT22;11620;50.050;8.690;2022-07-17T07:22:29;23.60;96.40
22908;DHT22;11620;50.050;8.690;2022-07-17T07:25:16;23.80;96.00
22908;DHT22;11620;50.050;8.690;2022-07-17T07:28:03;24.00;96.20
22908;DHT22;11620;50.050;8.690;2022-07-17T07:30:49;24.20;96.50
22908;DHT22;11620;50.050;8.690;2022-07-17T07:33:37;24.50;96.00
22908;DHT22;11620;50.050;8.690;2022-07-17T07:36:23;24.60;96.10
22908;DHT22;11620;50.050;8.690;2022-07-17T07:39:09;24.60;96.30
22908;DHT22;11620;50.050;8.690;2022-07-17T07:41:56;24.90;96.40
22908;DHT22;11620;50.050;8.690;2022-07-17T07:44:42;25.10;94.70
22908;DHT22;11620;50.050;8.690;2022-07-17T07:47:28;25.40;94.60
22908;DHT22;11620;50.050;8.690;2022-07-17T07:50:15;25.60;94.80
22908;DHT22;11620;50.050;8.690;2022-07-17T07:53:02;25.80;94.90
22908;DHT22;11620;50.050;8.690;2022-07-17T07:55:48;25.90;93.90
22908;DHT22;11620;50.050;8.690;2022-07-17T07:58:35;26.20;93.70
22908;DHT22;11620;50.050;8.690;2022-07-17T08:01:21;26.00;93.70
22908;DHT22;11620;50.050;8.690;2022-07-17T08:04:07;26.20;94.40
22908;DHT22;11620;50.050;8.690;2022-07-17T08:06:54;26.50;93.70
22908;DHT22;11620;50.050;8.690;2022-07-17T08:09:40;26.60;93.00
22908;DHT22;11620;50.050;8.690;2022-07-17T08:12:27;26.80;93.50
22908;DHT22;11620;50.050;8.690;2022-07-17T08:15:15;27.00;94.20
22908;DHT22;11620;50.050;8.690;2022-07-17T08:18:02;27.20;93.70
22908;DHT22;11620;50.050;8.690;2022-07-17T08:20:49;27.40;93.40
22908;DHT22;11620;50.050;8.690;2022-07-17T08:23:35;27.70;93.80
22908;DHT22;11620;50.050;8.690;2022-07-17T08:26:21;27.90;93.20
22908;DHT22;11620;50.050;8.690;2022-07-17T08:29:08;28.10;92.50
22908;DHT22;11620;50.050;8.690;2022-07-17T08:31:54;28.10;91.10
22908;DHT22;11620;50.050;8.690;2022-07-17T08:34:41;28.20;92.10
22908;DHT22;11620;50.050;8.690;2022-07-17T08:37:28;28.40;92.20
22908;DHT22;11620;50.050;8.690;2022-07-17T08:40:20;28.50;91.90
22908;DHT22;11620;50.050;8.690;2022-07-17T08:43:08;28.40;91.30
22908;DHT22;11620;50.050;8.690;2022-07-17T08:45:55;28.40;91.00
22908;DHT22;11620;50.050;8.690;2022-07-17T08:48:45;28.60;91.10
22908;DHT22;11620;50.050;8.690;2022-07-17T08:51:32;28.70;91.40
22908;DHT22;11620;50.050;8.690;2022-07-17T08:54:19;28.50;90.60
22908;DHT22;11620;50.050;8.690;2022-07-17T08:57:06;28.60;90.20
22908;DHT22;11620;50.050;8.690;2022-07-17T08:59:52;28.40;90.70
22908;DHT22;11620;50.050;8.690;2022-07-17T09:02:39;28.70;91.00
22908;DHT22;11620;50.050;8.690;2022-07-17T09:05:32;29.10;90.20
22908;DHT22;11620;50.050;8.690;2022-07-17T09:08:22;29.40;90.60
22908;DHT22;11620;50.050;8.690;2022-07-17T09:11:09;29.50;90.50
22908;DHT22;11620;50.050;8.690;2022-07-17T09:13:56;29.50;89.60
22908;DHT22;11620;50.050;8.690;2022-07-17T09:19:45;29.70;90.20
22908;DHT22;11620;50.050;8.690;2022-07-17T09:22:31;30.00;90.60
22908;DHT22;11620;50.050;8.690;2022-07-17T09:25:18;30.30;89.50
22908;DHT22;11620;50.050;8.690;2022-07-17T09:28:05;30.50;88.50
22908;DHT22;11620;50.050;8.690;2022-07-17T09:30:53;30.70;89.30
22908;DHT22;11620;50.050;8.690;2022-07-17T09:33:40;30.90;89.70
22908;DHT22;11620;50.050;8.690;2022-07-17T09:36:27;31.00;89.20
22908;DHT22;11620;50.050;8.690;2022-07-17T09:39:13;30.90;89.20
22908;DHT22;11620;50.050;8.690;2022-07-17T09:41:59;31.20;89.00
22908;DHT22;11620;50.050;8.690;2022-07-17T09:44:55;31.10;87.30
22908;DHT22;11620;50.050;8.690;2022-07-17T09:47:41;31.30;85.50
22908;DHT22;11620;50.050;8.690;2022-07-17T09:50:29;31.20;84.80
22908;DHT22;11620;50.050;8.690;2022-07-17T09:53:17;31.30;83.70
22908;DHT22;11620;50.050;8.690;2022-07-17T09:56:05;31.50;85.70
22908;DHT22;11620;50.050;8.690;2022-07-17T09:58:54;31.70;84.80
22908;DHT22;11620;50.050;8.690;2022-07-17T10:01:44;31.80;83.10
22908;DHT22;11620;50.050;8.690;2022-07-17T10:04:34;31.70;84.60
22908;DHT22;11620;50.050;8.690;2022-07-17T10:07:22;32.00;84.50
22908;DHT22;11620;50.050;8.690;2022-07-17T10:10:10;32.10;85.70
22908;DHT22;11620;50.050;8.690;2022-07-17T10:12:56;31.80;83.20
22908;DHT22;11620;50.050;8.690;2022-07-17T10:15:43;32.00;83.50
22908;DHT22;11620;50.050;8.690;2022-07-17T10:18:40;31.80;84.80
22908;DHT22;11620;50.050;8.690;2022-07-17T10:21:29;32.20;83.20
22908;DHT22;11620;50.050;8.690;2022-07-17T10:24:16;32.50;84.40
22908;DHT22;11620;50.050;8.690;2022-07-17T10:27:02;32.50;82.60
22908;DHT22;11620;50.050;8.690;2022-07-17T10:30:06;32.60;82.80
22908;DHT22;11620;50.050;8.690;2022-07-17T10:32:58;32.90;81.60
22908;DHT22;11620;50.050;8.690;2022-07-17T10:35:48;33.00;81.00
22908;DHT22;11620;50.050;8.690;2022-07-17T10:38:41;33.20;82.80
22908;DHT22;11620;50.050;8.690;2022-07-17T10:41:28;33.30;82.80
22908;DHT22;11620;50.050;8.690;2022-07-17T10:44:24;33.40;83.10
22908;DHT22;11620;50.050;8.690;2022-07-17T10:47:11;33.20;80.50
22908;DHT22;11620;50.050;8.690;2022-07-17T10:49:58;33.20;81.90
22908;DHT22;11620;50.050;8.690;2022-07-17T10:52:44;33.30;80.10
22908;DHT22;11620;50.050;8.690;2022-07-17T10:55:31;33.30;77.00
22908;DHT22;11620;50.050;8.690;2022-07-17T10:58:19;33.40;78.50
22908;DHT22;11620;50.050;8.690;2022-07-17T11:01:09;33.30;75.90
22908;DHT22;11620;50.050;8.690;2022-07-17T11:03:58;33.20;77.20
22908;DHT22;11620;50.050;8.690;2022-07-17T11:06:45;33.30;78.00
22908;DHT22;11620;50.050;8.690;2022-07-17T11:09:32;33.60;76.70
22908;DHT22;11620;50.050;8.690;2022-07-17T11:12:18;33.70;74.90
22908;DHT22;11620;50.050;8.690;2022-07-17T11:15:05;33.70;73.80
22908;DHT22;11620;50.050;8.690;2022-07-17T11:17:52;33.10;77.40
22908;DHT22;11620;50.050;8.690;2022-07-17T11:23:34;33.60;78.10
22908;DHT22;11620;50.050;8.690;2022-07-17T11:26:21;33.90;75.00
22908;DHT22;11620;50.050;8.690;2022-07-17T11:29:08;34.00;71.10
22908;DHT22;11620;50.050;8.690;2022-07-17T11:31:55;34.20;71.70
22908;DHT22;11620;50.050;8.690;2022-07-17T11:34:42;34.30;76.00
22908;DHT22;11620;50.050;8.690;2022-07-17T11:37:29;34.60;72.30
22908;DHT22;11620;50.050;8.690;2022-07-17T11:40:16;34.60;73.40
22908;DHT22;11620;50.050;8.690;2022-07-17T11:43:03;34.70;74.80
22908;DHT22;11620;50.050;8.690;2022-07-17T11:45:51;34.90;74.10
22908;DHT22;11620;50.050;8.690;2022-07-17T11:48:41;34.90;74.50
22908;DHT22;11620;50.050;8.690;2022-07-17T11:51:43;34.90;74.50
22908;DHT22;11620;50.050;8.690;2022-07-17T11:54:29;35.00;74.70
22908;DHT22;11620;50.050;8.690;2022-07-17T11:57:17;34.90;72.20
22908;DHT22;11620;50.050;8.690;2022-07-17T12:00:07;34.70;73.80
22908;DHT22;11620;50.050;8.690;2022-07-17T12:02:59;34.50;74.90
22908;DHT22;11620;50.050;8.690;2022-07-17T12:05:46;34.60;72.30
22908;DHT22;11620;50.050;8.690;2022-07-17T12:08:33;34.50;69.70
22908;DHT22;11620;50.050;8.690;2022-07-17T12:11:20;34.60;67.90
22908;DHT22;11620;50.050;8.690;2022-07-17T12:14:07;34.60;70.00
22908;DHT22;11620;50.050;8.690;2022-07-17T12:16:56;34.60;67.70
22908;DHT22;11620;50.050;8.690;2022-07-17T12:19:44;34.70;65.80
22908;DHT22;11620;50.050;8.690;2022-07-17T12:22:30;34.40;67.80
22908;DHT22;11620;50.050;8.690;2022-07-17T12:25:28;34.50;68.70
22908;DHT22;11620;50.050;8.690;2022-07-17T12:28:15;34.80;68.90
22908;DHT22;11620;50.050;8.690;2022-07-17T12:31:01;35.00;66.30
22908;DHT22;11620;50.050;8.690;2022-07-17T12:33:48;35.10;67.20
22908;DHT22;11620;50.050;8.690;2022-07-17T12:36:35;35.20;65.40
22908;DHT22;11620;50.050;8.690;2022-07-17T12:39:21;35.40;66.90
22908;DHT22;11620;50.050;8.690;2022-07-17T12:42:08;35.40;67.70
22908;DHT22;11620;50.050;8.690;2022-07-17T12:44:55;35.30;65.80
22908;DHT22;11620;50.050;8.690;2022-07-17T12:47:41;35.20;64.30
22908;DHT22;11620;50.050;8.690;2022-07-17T12:50:28;35.20;67.00
22908;DHT22;11620;50.050;8.690;2022-07-17T12:53:14;35.10;65.90
22908;DHT22;11620;50.050;8.690;2022-07-17T12:56:01;35.10;64.90
22908;DHT22;11620;50.050;8.690;2022-07-17T12:58:48;34.80;67.10
22908;DHT22;11620;50.050;8.690;2022-07-17T13:01:35;34.90;66.70
22908;DHT22;11620;50.050;8.690;2022-07-17T13:04:21;35.10;67.80
22908;DHT22;11620;50.050;8.690;2022-07-17T13:07:08;35.10;64.70
22908;DHT22;11620;50.050;8.690;2022-07-17T13:09:54;35.20;66.70
22908;DHT22;11620;50.050;8.690;2022-07-17T13:12:41;35.20;64.60
22908;DHT22;11620;50.050;8.690;2022-07-17T13:15:28;35.20;63.40
22908;DHT22;11620;50.050;8.690;2022-07-17T13:18:14;34.80;60.50
22908;DHT22;11620;50.050;8.690;2022-07-17T13:21:00;35.10;60.60
22908;DHT22;11620;50.050;8.690;2022-07-17T13:23:47;35.20;61.60
22908;DHT22;11620;50.050;8.690;2022-07-17T13:26:34;35.30;63.50
22908;DHT22;11620;50.050;8.690;2022-07-17T13:29:20;35.20;63.10
22908;DHT22;11620;50.050;8.690;2022-07-17T13:32:06;35.30;63.30
22908;DHT22;11620;50.050;8.690;2022-07-17T13:34:53;35.40;61.30
22908;DHT22;11620;50.050;8.690;2022-07-17T13:37:39;35.40;64.10
22908;DHT22;11620;50.050;8.690;2022-07-17T13:40:26;35.30;63.60
22908;DHT22;11620;50.050;8.690;2022-07-17T13:43:12;35.30;63.50
22908;DHT22;11620;50.050;8.690;2022-07-17T13:45:59;35.50;63.20
22908;DHT22;11620;50.050;8.690;2022-07-17T13:48:45;35.40;61.90
22908;DHT22;11620;50.050;8.690;2022-07-17T13:51:32;35.40;62.20
22908;DHT22;11620;50.050;8.690;2022-07-17T13:54:19;35.30;59.40
22908;DHT22;11620;50.050;8.690;2022-07-17T13:57:05;35.10;59.60
22908;DHT22;11620;50.050;8.690;2022-07-17T13:59:51;35.20;60.40
22908;DHT22;11620;50.050;8.690;2022-07-17T14:02:38;35.40;63.90
22908;DHT22;11620;50.050;8.690;2022-07-17T14:05:25;35.50;63.60
22908;DHT22;11620;50.050;8.690;2022-07-17T14:08:11;35.50;62.70
22908;DHT22;11620;50.050;8.690;2022-07-17T14:10:58;35.50;62.50
22908;DHT22;11620;50.050;8.690;2022-07-17T14:13:44;35.30;61.20
22908;DHT22;11620;50.050;8.690;2022-07-17T14:16:31;35.20;59.70
22908;DHT22;11620;50.050;8.690;2022-07-17T14:19:17;35.20;60.00
22908;DHT22;11620;50.050;8.690;2022-07-17T14:22:04;35.20;61.20
22908;DHT22;11620;50.050;8.690;2022-07-17T14:24:50;35.20;62.20
22908;DHT22;11620;50.050;8.690;2022-07-17T14:27:37;35.20;62.70
22908;DHT22;11620;50.050;8.690;2022-07-17T14:30:24;35.30;63.20
22908;DHT22;11620;50.050;8.690;2022-07-17T14:33:10;35.20;62.10
22908;DHT22;11620;50.050;8.690;2022-07-17T14:35:56;35.20;61.10
22908;DHT22;11620;50.050;8.690;2022-07-17T14:38:43;35.30;60.10
22908;DHT22;11620;50.050;8.690;2022-07-17T14:41:29;35.40;61.50
22908;DHT22;11620;50.050;8.690;2022-07-17T14:44:16;35.50;61.60
22908;DHT22;11620;50.050;8.690;2022-07-17T14:47:02;35.30;60.00
22908;DHT22;11620;50.050;8.690;2022-07-17T14:49:49;34.90;60.00
22908;DHT22;11620;50.050;8.690;2022-07-17T14:52:36;34.80;60.50
22908;DHT22;11620;50.050;8.690;2022-07-17T14:55:22;34.80;60.50
22908;DHT22;11620;50.050;8.690;2022-07-17T14:58:09;34.60;59.50
22908;DHT22;11620;50.050;8.690;2022-07-17T15:00:56;34.60;61.00
22908;DHT22;11620;50.050;8.690;2022-07-17T15:03:42;34.80;60.90
22908;DHT22;11620;50.050;8.690;2022-07-17T15:06:28;34.60;60.40
22908;DHT22;11620;50.050;8.690;2022-07-17T15:09:15;34.30;59.60
22908;DHT22;11620;50.050;8.690;2022-07-17T15:12:01;34.20;59.80
22908;DHT22;11620;50.050;8.690;2022-07-17T15:14:48;34.20;61.80
22908;DHT22;11620;50.050;8.690;2022-07-17T15:17:34;34.20;62.80
22908;DHT22;11620;50.050;8.690;2022-07-17T15:20:21;34.10;62.80
22908;DHT22;11620;50.050;8.690;2022-07-17T15:23:07;34.00;64.40
22908;DHT22;11620;50.050;8.690;2022-07-17T15:25:56;34.10;63.40
22908;DHT22;11620;50.050;8.690;2022-07-17T15:28:42;34.20;62.70
22908;DHT22;11620;50.050;8.690;2022-07-17T15:31:29;34.20;62.90
22908;DHT22;11620;50.050;8.690;2022-07-17T15:34:15;34.10;63.20
22908;DHT22;11620;50.050;8.690;2022-07-17T15:37:01;33.90;62.80
22908;DHT22;11620;50.050;8.690;2022-07-17T15:39:48;33.80;63.60
22908;DHT22;11620;50.050;8.690;2022-07-17T15:42:37;33.60;63.60
22908;DHT22;11620;50.050;8.690;2022-07-17T15:45:23;33.60;64.40
22908;DHT22;11620;50.050;8.690;2022-07-17T15:48:10;33.50;65.20
22908;DHT22;11620;50.050;8.690;2022-07-17T15:50:56;33.40;65.10
22908;DHT22;11620;50.050;8.690;2022-07-17T15:53:43;33.30;64.20
22908;DHT22;11620;50.050;8.690;2022-07-17T15:56:30;33.20;63.10
22908;DHT22;11620;50.050;8.690;2022-07-17T15:59:16;33.10;64.10
22908;DHT22;11620;50.050;8.690;2022-07-17T16:02:03;33.10;66.10
22908;DHT22;11620;50.050;8.690;2022-07-17T16:04:49;33.10;64.50
22908;DHT22;11620;50.050;8.690;2022-07-17T16:07:35;33.10;64.90
22908;DHT22;11620;50.050;8.690;2022-07-17T16:10:22;33.10;65.30
22908;DHT22;11620;50.050;8.690;2022-07-17T16:13:08;33.00;65.00
22908;DHT22;11620;50.050;8.690;2022-07-17T16:15:55;32.80;65.70
22908;DHT22;11620;50.050;8.690;2022-07-17T16:18:41;32.80;65.40
22908;DHT22;11620;50.050;8.690;2022-07-17T16:21:28;32.70;67.30
22908;DHT22;11620;50.050;8.690;2022-07-17T16:24:14;32.50;64.80
22908;DHT22;11620;50.050;8.690;2022-07-17T16:27:02;32.30;65.00
22908;DHT22;11620;50.050;8.690;2022-07-17T16:29:48;32.20;65.80
22908;DHT22;11620;50.050;8.690;2022-07-17T16:32:35;32.10;66.00
22908;DHT22;11620;50.050;8.690;2022-07-17T16:35:21;32.00;67.10
22908;DHT22;11620;50.050;8.690;2022-07-17T16:38:07;32.00;65.90
22908;DHT22;11620;50.050;8.690;2022-07-17T16:40:54;31.90;65.90
22908;DHT22;11620;50.050;8.690;2022-07-17T16:43:41;31.90;65.80
22908;DHT22;11620;50.050;8.690;2022-07-17T16:46:27;32.00;66.90
22908;DHT22;11620;50.050;8.690;2022-07-17T16:49:14;31.90;66.60
22908;DHT22;11620;50.050;8.690;2022-07-17T16:52:03;31.90;69.60
22908;DHT22;11620;50.050;8.690;2022-07-17T16:54:49;31.80;71.90
22908;DHT22;11620;50.050;8.690;2022-07-17T16:57:36;31.80;71.60
22908;DHT22;11620;50.050;8.690;2022-07-17T17:00:23;31.60;73.00
22908;DHT22;11620;50.050;8.690;2022-07-17T17:03:09;31.50;69.90
22908;DHT22;11620;50.050;8.690;2022-07-17T17:05:56;31.40;75.20
22908;DHT22;11620;50.050;8.690;2022-07-17T17:08:42;31.30;74.50
22908;DHT22;11620;50.050;8.690;2022-07-17T17:11:28;31.30;69.80
22908;DHT22;11620;50.050;8.690;2022-07-17T17:14:15;31.30;70.60
22908;DHT22;11620;50.050;8.690;2022-07-17T17:17:01;31.30;71.50
22908;DHT22;11620;50.050;8.690;2022-07-17T17:19:48;31.10;74.00
22908;DHT22;11620;50.050;8.690;2022-07-17T17:22:34;31.00;73.40
22908;DHT22;11620;50.050;8.690;2022-07-17T17:25:20;31.00;75.50
22908;DHT22;11620;50.050;8.690;2022-07-17T17:28:07;31.00;74.10
22908;DHT22;11620;50.050;8.690;2022-07-17T17:30:53;30.80;72.70
22908;DHT22;11620;50.050;8.690;2022-07-17T17:33:40;30.90;70.00
22908;DHT22;11620;50.050;8.690;2022-07-17T17:36:26;30.80;70.60
22908;DHT22;11620;50.050;8.690;2022-07-17T17:39:12;30.80;74.80